createdAt,value
2019-02-22T00:01:22.864Z,30.20
2019-02-22T00:04:36.328Z,31.00
2019-02-22T00:07:49.814Z,35.10
2019-02-22T00:11:03.399Z,41.93
2019-02-22T00:14:16.847Z,34.30
2019-02-22T00:17:30.720Z,38.43
2019-02-22T00:20:44.188Z,31.27
2019-02-22T00:23:57.704Z,31.27
2019-02-22T00:27:11.301Z,34.53
2019-02-22T00:30:24.738Z,34.73
2019-02-22T00:33:38.534Z,32.37
2019-02-22T00:36:52.183Z,31.30
2019-02-22T00:43:37.847Z,32.80
2019-02-22T00:46:51.304Z,26.57
2019-02-22T00:50:05.170Z,35.60
2019-02-22T00:53:18.640Z,31.70
2019-02-22T00:56:32.095Z,28.37
2019-02-22T00:59:45.574Z,32.40
2019-02-22T01:02:59.038Z,29.97
2019-02-22T01:06:12.497Z,27.30
2019-02-22T01:09:25.971Z,30.43
2019-02-22T01:12:39.798Z,33.03
2019-02-22T01:15:53.196Z,33.80
2019-02-22T01:19:06.662Z,36.00
2019-02-22T01:22:20.126Z,36.13
2019-02-22T01:25:34.043Z,30.80
2019-02-22T01:28:47.820Z,28.63
2019-02-22T01:32:01.352Z,29.07
2019-02-22T01:35:14.924Z,28.47
2019-02-22T01:38:28.392Z,25.73
2019-02-22T01:41:42.208Z,28.47
2019-02-22T01:44:55.682Z,29.00
2019-02-22T01:48:09.154Z,30.60
2019-02-22T01:51:22.717Z,27.10
2019-02-22T01:54:36.309Z,27.80
2019-02-22T01:57:49.779Z,25.97
2019-02-22T02:01:03.876Z,27.60
2019-02-22T02:04:17.381Z,31.33
2019-02-22T02:07:30.874Z,25.03
2019-02-22T02:10:53.907Z,32.77
2019-02-22T02:13:59.841Z,27.20
2019-02-22T02:17:13.671Z,28.63
2019-02-22T02:20:27.250Z,28.37
2019-02-22T02:23:40.995Z,29.20
2019-02-22T02:26:54.571Z,29.07
2019-02-22T02:30:09.039Z,28.10
2019-02-22T02:33:22.520Z,27.97
2019-02-22T02:36:36.413Z,29.13
2019-02-22T02:39:49.885Z,28.77
2019-02-22T02:43:03.503Z,31.67
2019-02-22T02:46:17.040Z,32.10
2019-02-22T02:49:30.507Z,35.20
2019-02-22T02:52:44.011Z,28.40
2019-02-22T02:55:57.475Z,31.73
2019-02-22T02:59:11.049Z,34.90
2019-02-22T03:02:26.749Z,31.57
2019-02-22T03:06:06.189Z,39.20
2019-02-22T03:09:20.085Z,40.23
2019-02-22T03:12:33.568Z,41.47
2019-02-22T03:15:47.089Z,40.87
2019-02-22T03:19:00.536Z,39.07
2019-02-22T03:22:14.020Z,39.03
2019-02-22T03:25:27.494Z,42.43
2019-02-22T03:28:40.955Z,42.57
2019-02-22T03:31:54.419Z,42.03
2019-02-22T03:35:07.984Z,41.93
2019-02-22T03:38:21.759Z,39.63
2019-02-22T03:41:35.250Z,45.80
2019-02-22T03:44:48.829Z,50.80
2019-02-22T03:48:02.692Z,58.00
2019-02-22T03:51:16.166Z,50.80
2019-02-22T03:54:29.827Z,57.40
2019-02-22T03:57:43.516Z,48.40
2019-02-22T04:00:57.227Z,46.93
2019-02-22T04:04:10.794Z,54.70
2019-02-22T04:07:24.250Z,52.73
2019-02-22T04:10:37.708Z,53.17
2019-02-22T04:13:51.597Z,54.00
2019-02-22T04:17:05.074Z,54.43
2019-02-22T04:20:18.634Z,49.73
2019-02-22T04:23:32.103Z,51.87
2019-02-22T04:26:45.798Z,54.70
2019-02-22T04:29:59.270Z,58.20
2019-02-22T04:33:12.753Z,60.07
2019-02-22T04:36:26.494Z,55.70
2019-02-22T04:39:40.309Z,62.47
2019-02-22T04:42:53.748Z,64.77
2019-02-22T04:46:07.224Z,61.37
2019-02-22T04:49:21.055Z,65.83
2019-02-22T04:52:34.523Z,58.40
2019-02-22T04:55:48.298Z,67.00
2019-02-22T04:59:01.775Z,54.37
2019-02-22T05:02:15.316Z,61.07
2019-02-22T05:05:28.723Z,52.00
2019-02-22T05:08:42.202Z,54.10
2019-02-22T05:11:55.666Z,52.97
2019-02-22T05:15:12.811Z,51.00
2019-02-22T05:18:24.840Z,49.93
2019-02-22T05:21:38.593Z,51.37
2019-02-22T05:24:52.062Z,51.13
2019-02-22T05:28:05.550Z,53.83
2019-02-22T05:31:19.257Z,58.50
2019-02-22T05:34:32.731Z,58.23
2019-02-22T05:37:46.806Z,54.10
2019-02-22T05:41:00.270Z,51.13
2019-02-22T05:44:14.063Z,60.60
2019-02-22T05:47:27.540Z,75.70
2019-02-22T05:50:41.251Z,76.70
2019-02-22T05:53:54.761Z,65.30
2019-02-22T05:57:08.324Z,67.53
2019-02-22T06:00:21.885Z,61.00
2019-02-22T06:03:35.359Z,66.37
2019-02-22T06:06:48.830Z,58.33
2019-02-22T06:10:02.693Z,79.37
2019-02-22T06:13:16.157Z,68.60
2019-02-22T06:16:29.988Z,60.77
2019-02-22T06:19:43.462Z,61.37
2019-02-22T06:22:56.928Z,62.57
2019-02-22T06:26:10.709Z,60.03
2019-02-22T06:29:24.463Z,58.23
2019-02-22T06:32:38.031Z,57.27
2019-02-22T06:35:51.504Z,62.13
2019-02-22T06:39:05.459Z,62.13
2019-02-22T06:42:18.934Z,68.73
2019-02-22T06:45:32.415Z,84.60
2019-02-22T06:48:45.863Z,96.27
2019-02-22T06:51:59.342Z,100.50
2019-02-22T06:55:13.128Z,94.20
2019-02-22T06:58:27.252Z,103.57
2019-02-22T07:01:40.727Z,112.37
2019-02-22T07:04:54.199Z,104.37
2019-02-22T07:08:07.683Z,90.80
2019-02-22T07:11:44.442Z,92.73
2019-02-22T07:14:57.952Z,118.37
2019-02-22T07:18:11.438Z,132.90
2019-02-22T07:21:24.921Z,131.93
2019-02-22T07:24:38.410Z,126.23
2019-02-22T07:27:51.846Z,117.43
2019-02-22T07:31:05.421Z,101.63
2019-02-22T07:34:18.885Z,121.50
2019-02-22T07:37:32.835Z,137.33
2019-02-22T07:40:46.325Z,112.20
2019-02-22T07:43:59.905Z,139.23
2019-02-22T07:47:13.371Z,127.83
2019-02-22T07:50:26.900Z,114.50
2019-02-22T07:53:40.476Z,109.40
2019-02-22T07:56:53.952Z,117.13
2019-02-22T08:03:29.582Z,98.77
2019-02-22T08:06:43.173Z,102.33
2019-02-22T08:09:56.970Z,103.53
2019-02-22T08:13:19.233Z,102.83
2019-02-22T08:16:26.146Z,81.00
2019-02-22T08:19:39.752Z,63.27
2019-02-22T08:22:53.219Z,61.07
2019-02-22T08:26:07.007Z,55.17
2019-02-22T08:29:20.472Z,55.93
2019-02-22T08:32:34.121Z,46.23
2019-02-22T08:35:47.847Z,41.10
2019-02-22T08:39:01.300Z,37.10
2019-02-22T08:42:14.854Z,35.87
2019-02-22T08:45:28.316Z,33.13
2019-02-22T08:48:42.069Z,30.60
2019-02-22T08:51:55.599Z,24.83
2019-02-22T08:55:09.529Z,24.80
2019-02-22T08:58:23.327Z,24.60
2019-02-22T09:01:36.793Z,24.53
2019-02-22T09:04:50.261Z,29.77
2019-02-22T09:08:04.284Z,23.87
2019-02-22T09:11:17.745Z,24.23
2019-02-22T09:14:31.196Z,27.20
2019-02-22T09:17:44.654Z,22.30
2019-02-22T09:20:58.112Z,18.83
2019-02-22T09:24:11.671Z,17.97
2019-02-22T09:27:25.448Z,18.03
2019-02-22T09:30:39.005Z,17.17
2019-02-22T09:33:52.784Z,15.97
2019-02-22T09:37:06.265Z,17.57
2019-02-22T09:40:19.726Z,15.00
2019-02-22T09:43:33.196Z,15.70
2019-02-22T09:46:46.638Z,12.73
2019-02-22T09:50:00.442Z,13.13
2019-02-22T09:53:14.020Z,12.20
2019-02-22T09:56:27.480Z,12.37
2019-02-22T09:59:41.384Z,11.73
2019-02-22T10:02:55.139Z,12.00
2019-02-22T10:06:08.866Z,11.97
2019-02-22T10:09:22.340Z,13.33
2019-02-22T10:12:36.475Z,14.73
2019-02-22T10:15:50.057Z,13.23
2019-02-22T10:19:03.879Z,11.80
2019-02-22T10:22:17.621Z,12.30
2019-02-22T10:25:31.084Z,13.40
2019-02-22T10:28:44.555Z,12.70
2019-02-22T10:31:58.701Z,13.50
2019-02-22T10:35:12.122Z,13.83
2019-02-22T10:38:26.064Z,12.07
2019-02-22T10:41:39.534Z,11.83
2019-02-22T10:44:53.263Z,12.60
2019-02-22T10:48:06.724Z,12.37
2019-02-22T10:51:20.285Z,11.50
2019-02-22T10:54:33.765Z,12.83
2019-02-22T10:57:47.229Z,9.73
2019-02-22T11:01:00.791Z,11.53
2019-02-22T11:04:14.264Z,10.03
2019-02-22T11:07:27.722Z,9.90
2019-02-22T11:10:41.200Z,9.47
2019-02-22T11:13:54.816Z,9.93
2019-02-22T11:17:08.288Z,16.17
2019-02-22T11:20:22.105Z,10.03
2019-02-22T11:23:35.628Z,17.37
2019-02-22T11:26:49.096Z,12.10
2019-02-22T11:30:03.390Z,84.97
2019-02-22T11:33:16.863Z,22.10
2019-02-22T11:36:30.458Z,18.60
2019-02-22T11:39:43.996Z,10.97
2019-02-22T11:42:57.509Z,7.60
2019-02-22T11:46:11.014Z,7.20
2019-02-22T11:49:24.487Z,22.50
2019-02-22T11:52:38.202Z,14.50
2019-02-22T11:55:51.993Z,42.10
2019-02-22T11:59:05.562Z,8.03
2019-02-22T12:02:19.037Z,4.67
2019-02-22T12:05:33.145Z,7.23
2019-02-22T12:08:46.644Z,4.57
2019-02-22T12:12:00.540Z,5.90
2019-02-22T12:15:14.015Z,6.17
2019-02-22T12:18:27.490Z,3.67
2019-02-22T12:21:40.961Z,3.37
2019-02-22T12:24:54.665Z,2.83
2019-02-22T12:28:08.251Z,8.30
2019-02-22T12:31:21.820Z,4.57
2019-02-22T12:34:35.573Z,3.87
2019-02-22T12:37:49.766Z,3.80
2019-02-22T12:41:03.403Z,3.03
2019-02-22T12:44:16.903Z,2.27
2019-02-22T12:47:30.400Z,4.83
2019-02-22T12:50:43.880Z,5.23
2019-02-22T12:53:57.330Z,2.00
2019-02-22T12:57:10.796Z,3.17
2019-02-22T13:00:24.604Z,6.57
2019-02-22T13:03:38.109Z,3.83
2019-02-22T13:06:51.574Z,2.77
2019-02-22T13:10:06.013Z,3.37
2019-02-22T13:13:19.484Z,3.27
2019-02-22T13:16:33.069Z,2.00
2019-02-22T13:19:46.876Z,3.20
2019-02-22T13:23:00.382Z,4.07
2019-02-22T13:26:14.333Z,2.50
2019-02-22T13:29:27.824Z,2.93
2019-02-22T13:32:41.298Z,3.10
2019-02-22T13:35:54.955Z,3.70
2019-02-22T13:39:09.075Z,2.90
2019-02-22T13:42:23.124Z,3.47
2019-02-22T13:45:36.895Z,3.03
2019-02-22T13:48:50.381Z,5.20
2019-02-22T13:52:04.171Z,41.13
2019-02-22T13:55:17.650Z,3.67
2019-02-22T13:58:31.146Z,130.57
2019-02-22T14:01:44.814Z,4.57
2019-02-22T14:04:58.271Z,12.77
2019-02-22T14:08:12.007Z,2.30
2019-02-22T14:11:25.464Z,4.13
2019-02-22T14:14:38.941Z,3.90
2019-02-22T14:17:52.425Z,11.60
2019-02-22T14:21:05.895Z,3.47
2019-02-22T14:24:19.364Z,4.50
2019-02-22T14:27:32.827Z,3.40
2019-02-22T14:30:46.814Z,3.50
2019-02-22T14:34:00.294Z,3.40
2019-02-22T14:37:13.805Z,4.07
2019-02-22T14:40:27.247Z,11.93
2019-02-22T14:43:40.720Z,3.13
2019-02-22T14:46:55.123Z,4.20
2019-02-22T14:50:10.915Z,3.80
2019-02-22T14:53:24.377Z,58.67
2019-02-22T14:56:37.844Z,7.30
2019-02-22T14:59:51.307Z,8.53
2019-02-22T15:03:05.081Z,5.17
2019-02-22T15:06:18.797Z,4.90
2019-02-22T15:09:32.525Z,4.37
2019-02-22T15:12:50.228Z,25.03
2019-02-22T15:16:23.461Z,5.77
2019-02-22T15:19:37.207Z,6.63
2019-02-22T15:22:50.879Z,8.63
2019-02-22T15:26:04.489Z,11.17
2019-02-22T15:29:17.979Z,6.67
2019-02-22T15:32:31.441Z,15.50
2019-02-22T15:35:45.168Z,8.27
2019-02-22T15:38:58.668Z,16.07
2019-02-22T15:42:12.259Z,5.80
2019-02-22T15:45:26.009Z,5.30
2019-02-22T15:48:39.460Z,8.93
2019-02-22T15:51:53.243Z,10.30
2019-02-22T15:55:07.276Z,170.03
2019-02-22T15:58:20.740Z,17.70
2019-02-22T16:01:34.218Z,11.43
2019-02-22T16:05:01.121Z,7.07
2019-02-22T16:08:14.921Z,6.53
2019-02-22T16:11:28.484Z,6.23
2019-02-22T16:14:42.056Z,17.60
2019-02-22T16:17:55.984Z,12.77
2019-02-22T16:21:09.454Z,36.77
2019-02-22T16:24:23.202Z,9.97
2019-02-22T16:27:36.775Z,9.93
2019-02-22T16:30:50.943Z,6.73
2019-02-22T16:34:04.498Z,11.70
2019-02-22T16:37:18.798Z,13.93
2019-02-22T16:40:32.256Z,208.23
2019-02-22T16:43:45.705Z,14.43
2019-02-22T16:46:59.478Z,37.93
2019-02-22T16:50:13.184Z,47.20
2019-02-22T16:53:26.799Z,29.53
2019-02-22T16:56:40.260Z,10.97
2019-02-22T16:59:53.759Z,9.83
2019-02-22T17:03:07.340Z,12.17
2019-02-22T17:06:20.894Z,7.97
2019-02-22T17:09:34.350Z,9.03
2019-02-22T17:12:48.376Z,10.77
2019-02-22T17:16:01.833Z,28.67
2019-02-22T17:19:15.617Z,10.57
2019-02-22T17:22:29.072Z,10.30
2019-02-22T17:25:42.554Z,8.20
2019-02-22T17:28:56.031Z,8.50
2019-02-22T17:32:09.907Z,12.93
2019-02-22T17:35:23.668Z,10.20
2019-02-22T17:38:37.326Z,6.80
2019-02-22T17:41:50.786Z,10.60
2019-02-22T17:45:04.951Z,8.77
2019-02-22T17:48:18.536Z,8.37
2019-02-22T17:51:31.998Z,7.33
2019-02-22T17:54:45.711Z,10.50
2019-02-22T17:57:59.175Z,9.87
2019-02-22T18:01:12.655Z,12.47
2019-02-22T18:04:26.134Z,10.20
2019-02-22T18:07:42.431Z,7.77
2019-02-22T18:10:56.470Z,9.40
2019-02-22T18:14:10.075Z,11.60
2019-02-22T18:17:23.588Z,8.53
2019-02-22T18:20:37.444Z,11.77
2019-02-22T18:23:51.562Z,13.50
2019-02-22T18:27:06.528Z,17.33
2019-02-22T18:30:20.139Z,21.30
2019-02-22T18:33:33.714Z,25.57
2019-02-22T18:36:47.185Z,27.07
2019-02-22T18:40:01.144Z,24.17
2019-02-22T18:43:14.802Z,34.03
2019-02-22T18:46:28.378Z,17.57
2019-02-22T18:49:42.169Z,33.40
2019-02-22T18:52:55.748Z,24.60
2019-02-22T18:56:09.584Z,31.07
2019-02-22T18:59:23.099Z,21.50
2019-02-22T19:02:36.563Z,25.27
2019-02-22T19:05:50.031Z,23.37
2019-02-22T19:09:04.834Z,17.33
2019-02-22T19:12:18.703Z,41.03
2019-02-22T19:15:32.455Z,54.93
2019-02-22T19:18:46.135Z,28.17
2019-02-22T19:21:59.586Z,42.37
2019-02-22T19:25:13.651Z,24.40
2019-02-22T19:28:27.104Z,23.17
2019-02-22T19:31:40.674Z,25.37
2019-02-22T19:34:54.494Z,27.37
2019-02-22T19:38:07.964Z,14.30
2019-02-22T19:41:21.436Z,23.27
2019-02-22T19:44:35.237Z,49.97
2019-02-22T19:47:49.063Z,36.87
2019-02-22T19:51:02.530Z,29.50
2019-02-22T19:54:16.020Z,44.33
2019-02-22T19:57:29.488Z,48.90
2019-02-22T20:00:42.950Z,15.13
2019-02-22T20:03:56.425Z,16.03
2019-02-22T20:07:10.056Z,18.27
2019-02-22T20:10:23.936Z,14.90
2019-02-22T20:13:37.395Z,15.13
2019-02-22T20:16:50.861Z,18.03
2019-02-22T20:20:06.106Z,15.40
2019-02-22T20:23:19.673Z,18.73
2019-02-22T20:26:33.642Z,18.33
2019-02-22T20:29:47.146Z,24.13
2019-02-22T20:33:00.614Z,19.27
2019-02-22T20:36:14.042Z,20.30
2019-02-22T20:39:27.794Z,23.70
2019-02-22T20:42:41.270Z,30.93
2019-02-22T20:45:55.028Z,21.10
2019-02-22T20:49:08.474Z,18.33
2019-02-22T20:52:21.942Z,21.63
2019-02-22T20:55:35.857Z,45.10
2019-02-22T20:58:49.327Z,105.57
2019-02-22T21:02:02.909Z,58.17
2019-02-22T21:05:16.709Z,42.23
2019-02-22T21:08:30.169Z,155.77
2019-02-22T21:11:43.660Z,80.47
2019-02-22T21:14:57.125Z,34.17
2019-02-22T21:18:16.247Z,20.23
2019-02-22T21:21:25.948Z,14.23
2019-02-22T21:24:39.728Z,38.57
2019-02-22T21:27:53.203Z,71.80
2019-02-22T21:31:06.656Z,32.40
2019-02-22T21:34:20.227Z,23.13
2019-02-22T21:37:34.060Z,25.03
2019-02-22T21:40:47.788Z,31.90
2019-02-22T21:44:01.365Z,23.47
2019-02-22T21:47:15.108Z,30.57
2019-02-22T21:50:28.558Z,23.37
2019-02-22T21:53:42.035Z,23.57
2019-02-22T21:56:55.478Z,36.53
2019-02-22T22:00:12.255Z,30.47
2019-02-22T22:03:25.723Z,40.60
2019-02-22T22:06:39.181Z,33.17
2019-02-22T22:09:52.641Z,30.57
2019-02-22T22:13:06.092Z,29.43
2019-02-22T22:16:19.882Z,24.73
2019-02-22T22:19:33.447Z,21.83
2019-02-22T22:22:46.901Z,31.83
2019-02-22T22:26:00.363Z,23.57
2019-02-22T22:29:13.828Z,32.17
2019-02-22T22:32:27.946Z,23.60
2019-02-22T22:35:41.549Z,24.37
2019-02-22T22:38:55.277Z,21.80
2019-02-22T22:42:08.743Z,21.00
2019-02-22T22:45:22.257Z,21.97
2019-02-22T22:48:35.778Z,22.03
2019-02-22T22:51:49.477Z,23.33
2019-02-22T22:55:03.058Z,25.33
2019-02-22T22:58:16.603Z,21.80
2019-02-22T23:01:32.651Z,23.07
2019-02-22T23:04:46.320Z,21.47
2019-02-22T23:07:59.795Z,21.50
2019-02-22T23:11:13.381Z,20.03
2019-02-22T23:14:26.832Z,23.20
2019-02-22T23:17:40.292Z,23.30
2019-02-22T23:20:53.869Z,22.57
2019-02-22T23:24:07.415Z,25.57
2019-02-22T23:27:20.890Z,22.30
2019-02-22T23:30:34.346Z,22.87
2019-02-22T23:33:48.031Z,18.10
2019-02-22T23:37:01.512Z,20.97
2019-02-22T23:40:15.082Z,21.70
2019-02-22T23:43:28.531Z,24.47
2019-02-22T23:46:42.278Z,20.67
2019-02-22T23:49:55.834Z,24.73
2019-02-22T23:53:09.580Z,39.80
2019-02-22T23:56:23.038Z,87.27
2019-02-22T23:59:36.483Z,55.53
